createdAt,value
2022-12-09T00:00:32.758Z,2.18
2022-12-09T00:02:59.780Z,2.18
2022-12-09T00:05:26.542Z,2.22
2022-12-09T00:07:52.992Z,2.23
2022-12-09T00:10:19.788Z,2.25
2022-12-09T00:12:46.343Z,2.26
2022-12-09T00:15:13.036Z,2.27
2022-12-09T00:17:39.488Z,2.26
2022-12-09T00:20:06.930Z,2.26
2022-12-09T00:22:34.032Z,2.25
2022-12-09T00:25:00.464Z,2.25
2022-12-09T00:27:26.927Z,2.26
2022-12-09T00:29:53.389Z,2.25
2022-12-09T00:32:19.806Z,2.26
2022-12-09T00:34:49.020Z,2.25
2022-12-09T00:37:15.513Z,2.24
2022-12-09T00:39:41.911Z,2.26
2022-12-09T00:42:08.319Z,2.26
2022-12-09T00:44:34.719Z,2.25
2022-12-09T00:47:01.450Z,2.23
2022-12-09T00:49:28.023Z,2.21
2022-12-09T00:51:54.613Z,2.22
2022-12-09T00:54:21.135Z,2.20
2022-12-09T00:56:47.551Z,2.20
2022-12-09T00:59:14.307Z,2.19
2022-12-09T01:01:40.840Z,2.19
2022-12-09T01:04:08.675Z,2.20
2022-12-09T01:06:35.385Z,2.19
2022-12-09T01:09:03.103Z,2.20
2022-12-09T01:11:30.001Z,2.19
2022-12-09T01:14:03.094Z,2.20
2022-12-09T01:16:31.866Z,2.23
2022-12-09T01:19:00.568Z,2.24
2022-12-09T01:21:30.533Z,2.24
2022-12-09T01:23:57.036Z,2.25
2022-12-09T01:26:23.505Z,2.25
2022-12-09T01:28:52.861Z,2.25
2022-12-09T01:31:22.095Z,2.27
2022-12-09T01:33:48.688Z,2.26
2022-12-09T01:36:18.589Z,2.28
2022-12-09T01:38:46.644Z,2.28
2022-12-09T01:41:14.271Z,2.29
2022-12-09T01:43:41.049Z,2.30
2022-12-09T01:46:08.636Z,2.30
2022-12-09T01:48:40.324Z,2.30
2022-12-09T01:51:13.919Z,2.31
2022-12-09T01:53:44.026Z,2.32
2022-12-09T01:56:17.037Z,2.33
2022-12-09T01:58:44.772Z,2.33
2022-12-09T02:01:12.062Z,2.33
2022-12-09T02:03:38.763Z,2.34
2022-12-09T02:06:05.684Z,2.35
2022-12-09T02:08:32.236Z,2.33
2022-12-09T02:11:38.948Z,2.34
2022-12-09T02:14:14.221Z,2.36
2022-12-09T02:17:19.183Z,2.35
2022-12-09T02:20:44.327Z,2.34
2022-12-09T02:23:36.199Z,2.35
2022-12-09T02:26:15.067Z,2.35
2022-12-09T02:28:59.198Z,2.37
2022-12-09T02:31:41.897Z,2.37
2022-12-09T02:34:30.075Z,2.38
2022-12-09T02:37:08.778Z,2.39
2022-12-09T02:39:40.821Z,2.38
2022-12-09T02:42:09.103Z,2.38
2022-12-09T02:44:38.040Z,2.37
2022-12-09T02:47:08.794Z,2.38
2022-12-09T02:49:36.297Z,2.38
2022-12-09T02:52:04.269Z,2.38
2022-12-09T02:54:34.370Z,2.39
2022-12-09T02:57:12.887Z,2.36
2022-12-09T02:59:39.497Z,2.34
2022-12-09T03:02:28.348Z,2.35
2022-12-09T03:04:59.879Z,2.35
2022-12-09T03:07:39.133Z,2.35
2022-12-09T03:10:29.416Z,2.34
2022-12-09T03:13:06.940Z,2.35
2022-12-09T03:15:37.805Z,2.34
2022-12-09T03:18:09.265Z,2.35
2022-12-09T03:20:40.159Z,2.36
2022-12-09T03:23:08.890Z,2.36
2022-12-09T03:25:40.993Z,2.38
2022-12-09T03:28:14.307Z,2.40
2022-12-09T03:30:44.910Z,2.40
2022-12-09T03:33:14.339Z,2.41
2022-12-09T03:35:50.240Z,2.42
2022-12-09T03:38:19.475Z,2.45
2022-12-09T03:40:53.941Z,2.47
2022-12-09T03:43:27.617Z,2.48
2022-12-09T03:45:55.763Z,2.49
2022-12-09T03:48:23.547Z,2.50
2022-12-09T03:50:58.219Z,2.50
2022-12-09T03:53:41.789Z,2.50
2022-12-09T03:56:18.724Z,2.51
2022-12-09T03:58:47.606Z,2.50
2022-12-09T04:01:15.287Z,2.50
2022-12-09T04:03:46.260Z,2.51
2022-12-09T04:06:13.162Z,2.52
2022-12-09T04:08:39.847Z,2.53
2022-12-09T04:11:06.343Z,2.54
2022-12-09T04:13:32.732Z,2.54
2022-12-09T04:15:59.330Z,2.54
2022-12-09T04:18:26.378Z,2.55
2022-12-09T04:20:53.020Z,2.52
2022-12-09T04:23:19.548Z,2.53
2022-12-09T04:25:46.109Z,2.53
2022-12-09T04:28:12.678Z,2.54
2022-12-09T04:30:39.161Z,2.53
2022-12-09T04:33:05.827Z,2.52
2022-12-09T04:35:32.562Z,2.52
2022-12-09T04:37:59.073Z,2.51
2022-12-09T04:40:25.930Z,2.50
2022-12-09T04:42:52.728Z,2.49
2022-12-09T04:45:19.208Z,2.49
2022-12-09T04:47:45.793Z,2.48
2022-12-09T04:50:13.201Z,2.47
2022-12-09T04:52:40.065Z,2.47
2022-12-09T04:55:07.562Z,2.45
2022-12-09T04:57:34.076Z,2.45
2022-12-09T05:00:00.602Z,2.44
2022-12-09T05:02:27.508Z,2.44
2022-12-09T05:04:54.365Z,2.43
2022-12-09T05:07:23.441Z,2.44
2022-12-09T05:09:50.343Z,2.42
2022-12-09T05:12:17.405Z,2.43
2022-12-09T05:14:43.851Z,2.43
2022-12-09T05:17:10.409Z,2.42
2022-12-09T05:19:37.280Z,2.40
2022-12-09T05:22:04.064Z,2.40
2022-12-09T05:24:31.837Z,2.39
2022-12-09T05:26:58.285Z,2.38
2022-12-09T05:29:24.984Z,2.37
2022-12-09T05:31:51.938Z,2.37
2022-12-09T05:34:19.055Z,2.35
2022-12-09T05:36:46.182Z,2.37
2022-12-09T05:39:12.791Z,2.35
2022-12-09T05:41:39.544Z,2.35
2022-12-09T05:44:06.378Z,2.34
2022-12-09T05:46:32.977Z,2.33
2022-12-09T05:48:59.695Z,2.32
2022-12-09T05:51:28.594Z,2.32
2022-12-09T05:53:56.739Z,2.32
2022-12-09T05:56:24.716Z,2.31
2022-12-09T05:58:52.731Z,2.31
2022-12-09T06:01:19.956Z,2.30
2022-12-09T06:03:48.319Z,2.29
2022-12-09T06:06:18.009Z,2.27
2022-12-09T06:08:45.915Z,2.25
2022-12-09T06:11:15.548Z,2.25
2022-12-09T06:13:42.401Z,2.23
2022-12-09T06:16:09.900Z,2.23
2022-12-09T06:18:37.596Z,2.22
2022-12-09T06:21:09.364Z,2.22
2022-12-09T06:23:37.907Z,2.22
2022-12-09T06:26:05.073Z,2.19
2022-12-09T06:28:33.250Z,2.20
2022-12-09T06:31:00.814Z,2.20
2022-12-09T06:33:53.625Z,2.18
2022-12-09T06:36:13.981Z,2.17
2022-12-09T06:38:41.203Z,2.18
2022-12-09T06:41:09.917Z,2.18
2022-12-09T06:43:37.602Z,2.17
2022-12-09T06:46:11.159Z,2.16
2022-12-09T06:48:38.015Z,2.20
2022-12-09T06:51:04.545Z,2.23
2022-12-09T06:53:31.728Z,2.25
2022-12-09T06:56:09.498Z,2.28
2022-12-09T06:58:38.066Z,2.28
2022-12-09T07:01:13.853Z,2.31
2022-12-09T07:03:50.303Z,2.30
2022-12-09T07:06:31.067Z,2.27
2022-12-09T07:09:00.958Z,2.25
2022-12-09T07:11:28.445Z,2.25
2022-12-09T07:13:55.513Z,2.23
2022-12-09T07:16:22.107Z,2.21
2022-12-09T07:18:48.745Z,2.18
2022-12-09T07:21:18.127Z,2.17
2022-12-09T07:23:45.538Z,2.17
2022-12-09T07:26:12.477Z,2.16
2022-12-09T07:28:42.685Z,2.16
2022-12-09T07:31:36.598Z,2.13
2022-12-09T07:34:04.720Z,2.12
2022-12-09T07:36:33.006Z,2.13
2022-12-09T07:39:04.848Z,2.15
2022-12-09T07:41:31.705Z,2.14
2022-12-09T07:43:58.536Z,2.16
2022-12-09T07:46:27.649Z,2.17
2022-12-09T07:48:56.221Z,2.18
2022-12-09T07:51:24.190Z,2.20
2022-12-09T07:53:51.866Z,2.22
2022-12-09T07:56:19.607Z,2.22
2022-12-09T07:58:48.227Z,2.23
2022-12-09T08:01:20.577Z,2.25
2022-12-09T08:03:48.465Z,2.23
2022-12-09T08:06:18.745Z,2.25
2022-12-09T08:08:46.615Z,2.23
2022-12-09T08:11:20.610Z,2.22
2022-12-09T08:13:48.213Z,2.20
2022-12-09T08:16:17.633Z,2.22
2022-12-09T08:18:45.528Z,2.21
2022-12-09T08:21:16.746Z,2.21
2022-12-09T08:23:44.060Z,2.24
2022-12-09T08:26:12.785Z,2.25
2022-12-09T08:28:39.612Z,2.27
2022-12-09T08:31:08.511Z,2.29
2022-12-09T08:33:36.389Z,2.33
2022-12-09T08:36:04.630Z,2.36
2022-12-09T08:38:32.059Z,2.39
2022-12-09T08:40:58.988Z,2.41
2022-12-09T08:43:25.797Z,2.45
2022-12-09T08:45:52.516Z,2.49
2022-12-09T08:48:19.169Z,2.53
2022-12-09T08:50:46.076Z,2.56
2022-12-09T08:53:13.256Z,2.58
2022-12-09T08:55:41.426Z,2.61
2022-12-09T08:58:07.857Z,2.64
2022-12-09T09:00:34.442Z,2.70
2022-12-09T09:03:01.086Z,2.76
2022-12-09T09:05:28.079Z,2.81
2022-12-09T09:07:55.077Z,2.86
2022-12-09T09:10:21.791Z,2.92
2022-12-09T09:12:48.607Z,2.97
2022-12-09T09:15:15.939Z,2.98
2022-12-09T09:17:48.177Z,3.05
2022-12-09T09:20:18.359Z,3.11
2022-12-09T09:22:45.057Z,3.17
2022-12-09T09:25:11.940Z,3.23
2022-12-09T09:27:39.099Z,3.27
2022-12-09T09:30:07.654Z,3.34
2022-12-09T09:32:34.649Z,3.40
2022-12-09T09:35:01.457Z,3.47
2022-12-09T09:37:28.485Z,3.53
2022-12-09T09:39:55.501Z,3.59
2022-12-09T09:42:31.491Z,3.63
2022-12-09T09:44:58.307Z,3.66
2022-12-09T09:47:38.854Z,3.71
2022-12-09T09:50:18.372Z,3.78
2022-12-09T09:52:45.383Z,3.81
2022-12-09T09:55:18.353Z,3.87
2022-12-09T09:57:57.628Z,3.93
2022-12-09T10:00:35.358Z,3.96
2022-12-09T10:03:14.141Z,4.05
2022-12-09T10:05:55.116Z,4.13
2022-12-09T10:08:29.557Z,4.20
2022-12-09T10:11:20.982Z,4.28
2022-12-09T10:14:07.027Z,4.35
2022-12-09T10:16:45.631Z,4.41
2022-12-09T10:19:18.018Z,4.43
2022-12-09T10:21:45.385Z,4.50
2022-12-09T10:24:20.089Z,4.59
2022-12-09T10:26:57.070Z,4.68
2022-12-09T10:29:47.769Z,4.77
2022-12-09T10:32:18.794Z,4.86
2022-12-09T10:34:47.717Z,4.95
2022-12-09T10:37:27.704Z,5.01
2022-12-09T10:40:15.510Z,5.06
2022-12-09T10:43:11.697Z,5.10
2022-12-09T10:48:44.839Z,5.21
2022-12-09T10:51:30.167Z,5.27
2022-12-09T10:53:59.983Z,5.31
2022-12-09T10:56:32.745Z,5.43
2022-12-09T10:59:20.363Z,5.83
2022-12-09T11:02:00.088Z,6.34
2022-12-09T11:04:40.768Z,6.84
2022-12-09T11:07:07.699Z,7.22
2022-12-09T11:09:37.732Z,7.25
2022-12-09T11:12:06.698Z,7.48
2022-12-09T11:14:39.775Z,7.49
2022-12-09T11:17:16.789Z,7.36
2022-12-09T11:19:47.095Z,7.08
2022-12-09T11:22:40.309Z,6.94
2022-12-09T11:25:15.776Z,7.05
2022-12-09T11:28:18.049Z,7.17
2022-12-09T11:31:28.509Z,7.50
2022-12-09T11:33:59.276Z,7.90
2022-12-09T11:36:30.988Z,7.95
2022-12-09T11:39:10.671Z,7.82
2022-12-09T11:41:55.989Z,7.88
2022-12-09T11:44:30.065Z,8.00
2022-12-09T11:47:20.467Z,8.24
2022-12-09T11:49:56.626Z,8.47
2022-12-09T11:52:29.243Z,8.77
2022-12-09T11:55:11.306Z,9.18
2022-12-09T11:58:00.951Z,9.52
2022-12-09T12:00:34.033Z,9.90
2022-12-09T12:03:18.853Z,10.29
2022-12-09T12:05:50.237Z,10.63
2022-12-09T12:08:32.709Z,10.92
2022-12-09T12:11:15.702Z,11.12
2022-12-09T12:13:47.225Z,11.50
2022-12-09T12:16:47.777Z,11.85
2022-12-09T12:19:38.045Z,12.22
2022-12-09T12:22:20.913Z,12.51
2022-12-09T12:24:47.331Z,12.76
2022-12-09T12:27:29.652Z,13.10
2022-12-09T12:30:13.399Z,13.27
2022-12-09T12:33:46.370Z,13.39
2022-12-09T12:36:03.352Z,13.28
2022-12-09T12:38:47.837Z,13.56
2022-12-09T12:41:28.815Z,13.57
2022-12-09T12:44:23.618Z,13.77
2022-12-09T12:47:01.846Z,13.97
2022-12-09T12:50:02.559Z,13.95
2022-12-09T12:52:56.198Z,13.62
2022-12-09T12:55:41.423Z,13.70
2022-12-09T12:58:30.194Z,13.37
2022-12-09T13:01:14.510Z,12.77
2022-12-09T13:03:56.147Z,12.30
2022-12-09T13:06:47.793Z,11.85
2022-12-09T13:09:38.163Z,11.44
2022-12-09T13:12:07.430Z,11.02
2022-12-09T13:14:47.424Z,10.62
2022-12-09T13:17:17.727Z,10.16
2022-12-09T13:19:50.253Z,9.77
2022-12-09T13:22:22.405Z,9.38
2022-12-09T13:25:05.003Z,9.01
2022-12-09T13:27:47.665Z,8.64
2022-12-09T13:30:21.903Z,8.40
2022-12-09T13:33:40.688Z,8.08
2022-12-09T13:36:19.676Z,7.84
2022-12-09T13:38:46.057Z,7.67
2022-12-09T13:41:27.629Z,7.51
2022-12-09T13:44:12.510Z,7.39
2022-12-09T13:46:39.810Z,7.25
2022-12-09T13:49:26.492Z,7.14
2022-12-09T13:51:55.237Z,7.04
2022-12-09T13:54:29.484Z,6.92
2022-12-09T13:57:34.282Z,6.78
2022-12-09T14:00:05.495Z,6.65
2022-12-09T14:02:52.529Z,6.55
2022-12-09T14:05:23.517Z,6.47
2022-12-09T14:07:56.529Z,6.41
2022-12-09T14:10:43.162Z,6.32
2022-12-09T14:13:22.564Z,6.27
2022-12-09T14:16:08.916Z,6.24
2022-12-09T14:18:35.597Z,6.21
2022-12-09T14:21:26.756Z,6.18
2022-12-09T14:24:08.985Z,6.12
2022-12-09T14:26:37.384Z,6.08
2022-12-09T14:29:04.277Z,6.04
2022-12-09T14:32:17.455Z,5.93
2022-12-09T14:34:47.091Z,5.88
2022-12-09T14:37:25.607Z,5.84
2022-12-09T14:40:00.666Z,5.79
2022-12-09T14:42:42.628Z,5.76
2022-12-09T14:45:21.846Z,5.73
2022-12-09T14:47:48.522Z,5.68
2022-12-09T14:50:24.130Z,5.65
2022-12-09T14:53:00.467Z,5.64
2022-12-09T14:55:29.192Z,5.61
2022-12-09T14:57:57.947Z,5.59
2022-12-09T15:00:24.889Z,5.55
2022-12-09T15:03:23.014Z,5.52
2022-12-09T15:05:39.399Z,5.49
2022-12-09T15:08:05.990Z,5.44
2022-12-09T15:10:36.380Z,5.40
2022-12-09T15:13:03.190Z,5.37
2022-12-09T15:15:36.407Z,5.33
2022-12-09T15:18:07.502Z,5.28
2022-12-09T15:20:40.235Z,5.27
2022-12-09T15:23:36.071Z,5.23
2022-12-09T15:26:23.560Z,5.16
2022-12-09T15:28:52.386Z,5.15
2022-12-09T15:31:21.422Z,5.12
2022-12-09T15:33:50.619Z,5.10
2022-12-09T15:36:24.598Z,5.08
2022-12-09T15:39:07.448Z,5.06
2022-12-09T15:41:58.590Z,5.04
2022-12-09T15:44:26.829Z,5.01
2022-12-09T15:46:55.723Z,5.01
2022-12-09T15:49:26.566Z,5.01
2022-12-09T15:51:55.604Z,5.01
2022-12-09T15:54:31.698Z,5.00
2022-12-09T15:57:01.947Z,4.96
2022-12-09T15:59:55.291Z,4.90
2022-12-09T16:02:33.590Z,4.83
2022-12-09T16:05:04.049Z,4.79
2022-12-09T16:07:32.840Z,4.74
2022-12-09T16:10:14.025Z,4.71
2022-12-09T16:12:41.723Z,4.68
2022-12-09T16:15:11.390Z,4.64
2022-12-09T16:17:54.491Z,4.60
2022-12-09T16:20:33.547Z,4.53
2022-12-09T16:23:02.163Z,4.49
2022-12-09T16:25:36.931Z,4.43
2022-12-09T16:28:06.138Z,4.38
2022-12-09T16:30:43.258Z,4.33
2022-12-09T16:33:21.119Z,4.29
2022-12-09T16:36:02.612Z,4.25
2022-12-09T16:38:31.299Z,4.22
2022-12-09T16:41:01.068Z,4.20
2022-12-09T16:43:28.666Z,4.16
2022-12-09T16:46:00.736Z,4.15
2022-12-09T16:48:29.440Z,4.13
2022-12-09T16:50:57.531Z,4.10
2022-12-09T16:53:41.050Z,4.07
2022-12-09T16:56:18.822Z,4.02
2022-12-09T16:58:45.257Z,3.99
2022-12-09T17:01:14.339Z,3.96
2022-12-09T17:03:47.480Z,3.95
2022-12-09T17:06:15.823Z,3.90
2022-12-09T17:08:42.464Z,3.87
2022-12-09T17:11:09.326Z,3.86
2022-12-09T17:13:35.846Z,3.83
2022-12-09T17:16:02.954Z,3.81
2022-12-09T17:18:29.755Z,3.78
2022-12-09T17:21:04.289Z,3.76
2022-12-09T17:23:36.137Z,3.71
2022-12-09T17:26:08.938Z,3.68
2022-12-09T17:28:35.785Z,3.65
2022-12-09T17:31:07.039Z,3.63
2022-12-09T17:33:33.381Z,3.61
2022-12-09T17:35:59.965Z,3.60
2022-12-09T17:38:29.215Z,3.59
2022-12-09T17:40:56.359Z,3.58
2022-12-09T17:43:22.852Z,3.56
2022-12-09T17:45:49.661Z,3.56
2022-12-09T17:48:16.179Z,3.56
2022-12-09T17:50:42.619Z,3.56
2022-12-09T17:53:09.222Z,3.57
2022-12-09T17:55:38.049Z,3.57
2022-12-09T17:58:04.648Z,3.55
2022-12-09T18:00:32.120Z,3.54
2022-12-09T18:02:58.479Z,3.54
2022-12-09T18:05:24.898Z,3.54
2022-12-09T18:07:52.475Z,3.54
2022-12-09T18:10:19.074Z,3.54
2022-12-09T18:12:45.541Z,3.53
2022-12-09T18:15:12.172Z,3.53
2022-12-09T18:17:38.666Z,3.54
2022-12-09T18:20:06.092Z,3.54
2022-12-09T18:22:32.755Z,3.54
2022-12-09T18:24:59.428Z,3.53
2022-12-09T18:27:25.873Z,3.53
2022-12-09T18:29:52.290Z,3.54
2022-12-09T18:32:18.750Z,3.54
2022-12-09T18:34:46.305Z,3.54
2022-12-09T18:37:13.125Z,3.57
2022-12-09T18:39:39.578Z,3.58
2022-12-09T18:42:06.122Z,3.60
2022-12-09T18:44:32.563Z,3.61
2022-12-09T18:46:59.600Z,3.61
2022-12-09T18:49:28.267Z,3.61
2022-12-09T18:51:55.708Z,3.62
2022-12-09T18:54:28.214Z,3.63
2022-12-09T18:56:55.966Z,3.64
2022-12-09T18:59:24.975Z,3.66
2022-12-09T19:01:52.088Z,3.67
2022-12-09T19:04:24.647Z,3.67
2022-12-09T19:06:53.990Z,3.68
2022-12-09T19:09:23.255Z,3.65
2022-12-09T19:11:51.463Z,3.64
2022-12-09T19:14:21.175Z,3.61
2022-12-09T19:16:48.235Z,3.61
2022-12-09T19:19:17.351Z,3.61
2022-12-09T19:21:43.996Z,3.59
2022-12-09T19:24:14.903Z,3.57
2022-12-09T19:26:42.802Z,3.56
2022-12-09T19:29:10.463Z,3.56
2022-12-09T19:31:43.043Z,3.55
2022-12-09T19:34:16.505Z,3.53
2022-12-09T19:36:44.172Z,3.54
2022-12-09T19:39:12.200Z,3.54
2022-12-09T19:41:40.328Z,3.54
2022-12-09T19:44:07.576Z,3.53
2022-12-09T19:46:35.032Z,3.52
2022-12-09T19:49:01.669Z,3.48
2022-12-09T19:51:28.214Z,3.45
2022-12-09T19:53:56.582Z,3.45
2022-12-09T19:56:23.735Z,3.43
2022-12-09T19:58:51.910Z,3.46
2022-12-09T20:01:21.465Z,3.49
2022-12-09T20:03:51.114Z,3.48
2022-12-09T20:06:21.294Z,3.48
2022-12-09T20:08:50.483Z,3.48
2022-12-09T20:11:30.351Z,3.48
2022-12-09T20:13:58.690Z,3.49
2022-12-09T20:16:26.551Z,3.51
2022-12-09T20:18:59.063Z,3.51
2022-12-09T20:21:26.210Z,3.52
2022-12-09T20:23:53.966Z,3.55
2022-12-09T20:26:31.650Z,3.53
2022-12-09T20:29:01.858Z,3.53
2022-12-09T20:31:30.473Z,3.53
2022-12-09T20:34:02.506Z,3.55
2022-12-09T20:36:31.310Z,3.56
2022-12-09T20:39:03.271Z,3.55
2022-12-09T20:41:31.881Z,3.56
2022-12-09T20:44:00.104Z,3.56
2022-12-09T20:46:38.333Z,3.57
2022-12-09T20:49:04.729Z,3.54
2022-12-09T20:51:34.145Z,3.54
2022-12-09T20:54:01.098Z,3.51
2022-12-09T20:56:28.993Z,3.52
2022-12-09T20:58:55.941Z,3.51
2022-12-09T21:01:25.247Z,3.51
2022-12-09T21:03:53.475Z,3.49
2022-12-09T21:06:22.309Z,3.48
2022-12-09T21:08:49.633Z,3.48
2022-12-09T21:11:19.003Z,3.46
2022-12-09T21:13:47.836Z,3.45
2022-12-09T21:16:25.315Z,3.42
2022-12-09T21:18:54.165Z,3.41
2022-12-09T21:21:22.537Z,3.41
2022-12-09T21:23:50.204Z,3.38
2022-12-09T21:26:18.662Z,3.34
2022-12-09T21:28:46.627Z,3.30
2022-12-09T21:31:19.430Z,3.27
2022-12-09T21:33:48.071Z,3.24
2022-12-09T21:36:19.957Z,3.21
2022-12-09T21:38:46.582Z,3.17
2022-12-09T21:41:22.419Z,3.12
2022-12-09T21:43:49.283Z,3.09
2022-12-09T21:46:20.980Z,3.07
2022-12-09T21:48:51.983Z,3.02
2022-12-09T21:51:20.346Z,2.98
2022-12-09T21:53:47.487Z,2.96
2022-12-09T21:56:22.140Z,2.93
2022-12-09T21:58:50.395Z,2.91
2022-12-09T22:01:29.454Z,2.90
2022-12-09T22:03:57.487Z,2.89
2022-12-09T22:06:27.608Z,2.89
2022-12-09T22:08:54.096Z,2.87
2022-12-09T22:11:23.537Z,2.88
2022-12-09T22:13:50.169Z,2.84
2022-12-09T22:16:19.904Z,2.85
2022-12-09T22:18:47.521Z,2.81
2022-12-09T22:21:26.575Z,2.79
2022-12-09T22:23:54.998Z,2.76
2022-12-09T22:26:22.409Z,2.73
2022-12-09T22:28:49.020Z,2.69
2022-12-09T22:31:18.117Z,2.68
2022-12-09T22:33:44.667Z,2.67
2022-12-09T22:36:12.237Z,2.66
2022-12-09T22:38:39.973Z,2.60
2022-12-09T22:41:09.790Z,2.54
2022-12-09T22:43:38.191Z,2.48
2022-12-09T22:46:07.447Z,2.42
2022-12-09T22:48:34.651Z,2.37
2022-12-09T22:51:10.116Z,2.31
2022-12-09T22:53:36.941Z,2.26
2022-12-09T22:56:04.456Z,2.20
2022-12-09T22:58:31.237Z,2.14
2022-12-09T23:00:57.817Z,2.08
2022-12-09T23:03:24.567Z,2.00
2022-12-09T23:05:51.241Z,1.90
2022-12-09T23:08:18.407Z,1.84
2022-12-09T23:10:44.862Z,1.77
2022-12-09T23:13:11.398Z,1.72
2022-12-09T23:15:37.840Z,1.67
2022-12-09T23:18:04.404Z,1.64
2022-12-09T23:20:30.798Z,1.62
2022-12-09T23:22:57.346Z,1.60
2022-12-09T23:25:23.745Z,1.58
2022-12-09T23:27:50.098Z,1.56
2022-12-09T23:30:16.540Z,1.54
2022-12-09T23:32:42.898Z,1.53
2022-12-09T23:35:09.923Z,1.53
2022-12-09T23:37:36.298Z,1.52
2022-12-09T23:40:02.801Z,1.53
2022-12-09T23:42:29.188Z,1.54
2022-12-09T23:44:55.631Z,1.55
2022-12-09T23:47:22.017Z,1.56
2022-12-09T23:49:48.396Z,1.58
2022-12-09T23:52:14.845Z,1.60
2022-12-09T23:54:41.237Z,1.62
2022-12-09T23:57:07.807Z,1.63
2022-12-09T23:59:34.217Z,1.67
